Portada
METAR-TAF:

METAR-TAF

Aeroports :

Bangalore, Índia

latitud: 12-57-00N, longitud: 077-40-06E, altitud: 888 m

Observació

L'informe es va fer fa 44 minuts, a les 17:00 UTC
Vent 6 kt del Oest/Sud-Oest
Temperatura 22°C
Humitat 83%
Pressió 1013 hPa
Visibilitat: 8000 m
Núvols disperses a una alçada de 1200 ft
Núvols disperses a una alçada de 8000 ft

METAR: VOBG 251700Z 25006KT 8000 SCT012 SCT080 22/19 Q1013

Hora: 23:14 (17:44 UTC)

Pronòstic

L'informe es va fer fa 44 minuts, a les 17:00 UTC
Pronòstic vàlid del 25 a les 18 UTC al 26 a les 03 UTC
Vent 10 kt del Oest
Visibilitat: 6000 m
Núvols disperses a una alçada de 1200 ft
Núvols disperses a una alçada de 8000 ft
Temporalment
l' 25 a les 21 UTC al 26 a les 03 UTC
Visibilitat: 4000 m
Núvols disperses a una alçada de 800 ft
Núvols disperses a una alçada de 1200 ft
Cel ennuvolat a una alçada de 8000 ft
pluja, boirina

TAF: VOBG 251700Z 2518/2603 27010KT 6000 SCT012 SCT080 TEMPO 2521/2603 4000 RA BR SCT008 SCT012 BKN080

Observacions i pronòstics meteorològics de més de 4000 aeroports (METAR i TAF).

Les estacions disponibles són els punts grocs i vermells al mapa.

Posi el ratolí al punt desitjat per veure el nom de l'estació.

Feu clic per veure les observacions i els pronòstics meteorològics.

Per canviar el mapa: feu clic els botons verds amb una creu de color negre per apropar; al botó verd amb un guió per allunyar la imatge; o en les fletxes verdes per a mapes adjacents.


METAR-TAF: